Time;durP1;ratioP1;P1;durP2;ratioP2;P2;SDS_P1;SDS_P2;PMS_P1;PMS_P2;Temp;Humidity;BMP_temperature;BMP_pressure;BME280_temperature;BME280_humidity;BME280_pressure;Samples;Min_cycle;Max_cycle;Signal;HPM_P1;HPM_P2
2023/10/30 00:01:32;;;;;;;4.95;0.88;;;11.80;99.90;;;11.45;100.00;99183.31;5033606;28;20036;-79
2023/10/30 00:03:58;;;;;;;3.65;1.33;;;11.90;99.90;;;11.46;100.00;99193.16;5034298;28;20041;-78
2023/10/30 00:06:24;;;;;;;4.20;0.60;;;11.90;99.90;;;11.57;100.00;99192.16;5029349;28;20025;-79
2023/10/30 00:08:50;;;;;;;5.55;0.73;;;12.00;99.90;;;11.54;100.00;99176.28;5026967;28;20037;-79
2023/10/30 00:11:16;;;;;;;6.32;0.73;;;12.00;99.90;;;11.59;100.00;99195.47;5026290;28;20044;-80
2023/10/30 00:13:42;;;;;;;5.10;1.25;;;12.00;99.90;;;11.57;100.00;99196.81;5024819;28;20065;-78
2023/10/30 00:16:10;;;;;;;4.55;0.70;;;12.00;99.90;;;11.56;100.00;99208.81;5016468;28;20033;-80
2023/10/30 00:18:38;;;;;;;7.50;0.90;;;12.00;99.90;;;11.59;100.00;99209.13;5033347;28;20030;-79
2023/10/30 00:21:05;;;;;;;4.80;0.70;;;12.00;99.90;;;11.55;100.00;99204.44;5018276;28;20056;-79
2023/10/30 00:23:31;;;;;;;4.20;0.70;;;11.90;99.90;;;11.55;100.00;99218.09;5020224;28;20358;-78
2023/10/30 00:25:57;;;;;;;3.35;0.70;;;12.00;99.90;;;11.56;100.00;99217.03;5027426;28;20099;-80
2023/10/30 00:28:23;;;;;;;7.22;0.93;;;12.00;99.90;;;11.57;100.00;99214.00;5026333;28;20033;-79
2023/10/30 00:30:49;;;;;;;3.72;0.90;;;12.00;99.90;;;11.64;100.00;99220.09;5029258;28;20479;-80
2023/10/30 00:33:15;;;;;;;3.50;0.63;;;12.00;99.90;;;11.59;100.00;99209.13;5016041;28;20038;-79
2023/10/30 00:35:40;;;;;;;5.13;1.20;;;12.10;99.90;;;11.60;100.00;99218.94;5013604;28;20030;-80
2023/10/30 00:38:06;;;;;;;5.03;0.95;;;12.10;99.90;;;11.66;100.00;99236.22;5021708;28;20040;-82
2023/10/30 00:40:32;;;;;;;4.68;1.10;;;12.10;99.90;;;11.60;100.00;99234.53;5032326;28;20120;-81
2023/10/30 00:42:59;;;;;;;6.13;1.00;;;12.10;99.90;;;11.66;100.00;99239.75;5014520;28;20034;-81
2023/10/30 00:45:24;;;;;;;4.25;0.80;;;12.10;99.90;;;11.63;100.00;99243.00;5013465;28;20040;-79
2023/10/30 00:47:50;;;;;;;5.30;1.00;;;12.00;99.90;;;11.63;100.00;99229.34;5013098;28;20034;-79
2023/10/30 00:50:16;;;;;;;5.35;1.02;;;12.00;99.90;;;11.58;100.00;99228.50;5019344;28;20056;-80
2023/10/30 00:52:42;;;;;;;7.75;0.73;;;12.00;99.90;;;11.61;100.00;99242.44;5026365;28;20104;-80
2023/10/30 00:55:08;;;;;;;5.50;0.70;;;12.00;99.90;;;11.58;100.00;99232.03;5032343;28;20033;-80
2023/10/30 00:57:34;;;;;;;4.47;0.80;;;11.90;99.90;;;11.60;100.00;99224.41;5025054;28;20033;-79
2023/10/30 01:00:00;;;;;;;5.00;0.95;;;12.00;99.90;;;11.66;100.00;99244.41;5013640;28;20057;-80
2023/10/30 01:02:26;;;;;;;6.78;1.20;;;12.10;99.90;;;11.73;100.00;99249.69;5013247;28;20223;-80
2023/10/30 01:04:52;;;;;;;6.40;1.45;;;12.10;99.90;;;11.78;100.00;99256.00;5028279;28;20099;-78
2023/10/30 01:07:17;;;;;;;5.05;0.90;;;12.20;99.90;;;11.76;100.00;99249.16;5025547;28;20029;-78
2023/10/30 01:09:43;;;;;;;4.55;0.90;;;12.20;99.90;;;11.82;100.00;99255.50;5013313;28;20127;-79
2023/10/30 01:12:09;;;;;;;6.82;1.00;;;12.20;99.90;;;11.86;100.00;99257.44;5017490;28;20042;-79
2023/10/30 01:14:35;;;;;;;3.65;0.98;;;12.30;99.90;;;11.93;100.00;99259.97;5030687;28;20029;-79
2023/10/30 01:17:01;;;;;;;7.72;1.35;;;12.40;99.90;;;11.99;100.00;99258.91;5012719;28;20477;-79
2023/10/30 01:19:27;;;;;;;5.30;1.00;;;12.40;99.90;;;12.03;100.00;99268.28;5012566;28;20041;-79
2023/10/30 01:21:53;;;;;;;6.43;1.00;;;12.40;99.90;;;12.04;100.00;99269.13;5026429;28;20099;-78
2023/10/30 01:24:19;;;;;;;5.15;0.98;;;12.50;99.90;;;12.03;100.00;99259.25;5029885;28;20034;-78
2023/10/30 01:26:44;;;;;;;6.28;0.98;;;12.40;99.90;;;12.00;100.00;99265.22;5016940;28;20046;-77
2023/10/30 01:29:10;;;;;;;3.92;0.82;;;12.40;99.90;;;11.98;100.00;99270.94;5023306;28;20034;-78
2023/10/30 01:31:36;;;;;;;4.57;1.40;;;12.40;99.90;;;11.91;100.00;99273.88;5030268;28;20040;-79
2023/10/30 01:34:02;;;;;;;6.32;1.35;;;12.40;99.90;;;11.86;100.00;99259.38;5030077;28;20069;-79
2023/10/30 01:36:30;;;;;;;6.90;1.13;;;12.30;99.90;;;11.83;100.00;99263.44;5025371;28;20030;-78
2023/10/30 01:38:55;;;;;;;5.63;1.00;;;12.30;99.90;;;11.73;100.00;99246.94;5012724;28;20056;-78
2023/10/30 01:41:23;;;;;;;6.45;0.90;;;12.30;99.90;;;11.83;100.00;99266.16;5003526;28;20294;-78
2023/10/30 01:43:49;;;;;;;4.63;1.17;;;12.30;99.90;;;11.83;100.00;99268.88;5038061;28;20041;-78
2023/10/30 01:46:15;;;;;;;3.45;0.88;;;12.30;99.90;;;11.78;100.00;99271.59;5029589;28;20040;-79
2023/10/30 01:48:43;;;;;;;;;;;12.20;99.90;;;11.72;100.00;99254.31;5029250;28;20044;-78
2023/10/30 01:51:11;;;;;;;5.40;1.10;;;12.20;99.90;;;11.69;100.00;99262.22;5013957;28;19917;-77
2023/10/30 01:53:38;;;;;;;5.30;1.60;;;12.10;99.90;;;11.63;100.00;99275.78;5016888;28;20120;-77
2023/10/30 01:56:06;;;;;;;6.32;1.30;;;12.10;99.90;;;11.61;100.00;99267.03;5020230;28;20083;-78
2023/10/30 01:58:34;;;;;;;4.15;0.80;;;12.00;99.90;;;11.61;100.00;99271.69;5027137;28;20116;-77
2023/10/30 02:01:01;;;;;;;5.93;1.00;;;12.00;99.90;;;11.55;100.00;99283.66;5015573;28;20038;-77
2023/10/30 02:03:30;;;;;;;5.10;0.90;;;12.00;99.90;;;11.58;100.00;99267.56;5017527;28;20030;-78
2023/10/30 02:05:55;;;;;;;5.65;1.95;;;12.00;99.90;;;11.56;100.00;99277.91;5030735;28;20045;-77
2023/10/30 02:08:22;;;;;;;4.35;1.05;;;12.00;99.90;;;11.56;100.00;99260.72;5018430;28;20030;-78
2023/10/30 02:10:48;;;;;;;9.40;1.23;;;12.00;99.90;;;11.56;100.00;99263.44;5028493;28;20045;-78
2023/10/30 02:13:15;;;;;;;8.48;1.00;;;11.90;99.90;;;11.56;100.00;99272.44;5042555;28;20029;-78
2023/10/30 02:15:41;;;;;;;4.55;1.00;;;12.00;99.90;;;11.51;100.00;99261.47;5025959;28;20135;-79
2023/10/30 02:18:06;;;;;;;8.13;1.20;;;12.00;99.90;;;11.42;100.00;99255.66;5026809;28;20045;-80
2023/10/30 02:20:34;;;;;;;5.13;1.10;;;12.00;99.90;;;11.45;100.00;99260.59;5012633;28;20437;-78
2023/10/30 02:23:00;;;;;;;5.55;1.30;;;11.90;99.90;;;11.53;100.00;99256.59;5031400;28;20493;-78
2023/10/30 02:25:26;;;;;;;5.32;1.20;;;12.00;99.90;;;11.48;100.00;99259.28;5019994;28;20538;-79
2023/10/30 02:27:53;;;;;;;7.20;1.13;;;11.90;99.90;;;11.49;100.00;99264.44;5020267;28;20124;-79
2023/10/30 02:30:19;;;;;;;7.50;1.25;;;11.90;99.90;;;11.47;100.00;99257.63;5030595;28;20030;-78
2023/10/30 02:32:47;;;;;;;7.93;1.17;;;11.90;99.90;;;11.49;100.00;99267.19;5030361;28;20049;-79
2023/10/30 02:35:17;;;;;;;9.77;1.10;;;11.90;99.90;;;11.49;100.00;99253.53;5012671;28;20034;-78
2023/10/30 02:37:44;;;;;;;5.30;1.05;;;11.90;99.90;;;11.46;100.00;99256.78;5017311;28;20052;-78
2023/10/30 02:40:12;;;;;;;6.22;1.42;;;11.90;99.90;;;11.40;100.00;99252.34;5018177;28;20113;-78
2023/10/30 02:42:42;;;;;;;4.45;1.00;;;11.80;99.90;;;11.35;100.00;99257.75;5010565;28;20033;-78
2023/10/30 02:45:08;;;;;;;6.40;1.30;;;11.70;99.90;;;11.23;100.00;99239.59;5016587;28;20116;-78
2023/10/30 02:47:34;;;;;;;5.95;1.00;;;11.70;99.90;;;11.26;100.00;99248.34;5030169;28;20543;-78
2023/10/30 02:50:04;;;;;;;4.03;1.00;;;11.70;99.90;;;11.29;100.00;99245.94;5018488;28;20734;-78
2023/10/30 02:52:36;;;;;;;3.78;0.98;;;11.70;99.90;;;11.31;100.00;99243.78;5016037;28;20040;-78
2023/10/30 02:55:03;;;;;;;6.38;1.10;;;11.70;99.90;;;11.30;100.00;99246.78;5020133;28;20049;-79
2023/10/30 02:57:28;;;;;;;7.07;1.10;;;11.70;99.90;;;11.23;100.00;99236.88;5022471;28;20033;-79
2023/10/30 02:59:54;;;;;;;9.18;1.52;;;11.60;99.90;;;11.21;100.00;99246.41;5020430;28;20042;-79
2023/10/30 03:02:24;;;;;;;6.15;0.90;;;11.60;99.90;;;11.16;100.00;99252.63;5010569;28;20030;-80
2023/10/30 03:04:50;;;;;;;6.60;1.00;;;11.50;99.90;;;11.12;100.00;99251.50;5010583;28;20041;-79
2023/10/30 03:07:17;;;;;;;5.18;1.08;;;11.50;99.90;;;11.13;100.00;99253.13;5010799;28;20033;-78
2023/10/30 03:09:42;;;;;;;4.65;1.08;;;11.60;99.90;;;11.17;100.00;99248.81;5026932;28;20048;-79
2023/10/30 03:12:08;;;;;;;4.22;1.20;;;11.60;99.90;;;11.15;100.00;99259.16;5017808;28;20022;-79
2023/10/30 03:14:34;;;;;;;7.15;1.38;;;11.60;99.90;;;11.13;100.00;99263.22;5026357;28;20040;-79
2023/10/30 03:17:00;;;;;;;8.48;1.20;;;11.60;99.90;;;11.15;100.00;99264.63;5027442;28;20062;-78
2023/10/30 03:19:26;;;;;;;7.18;1.20;;;11.60;99.90;;;11.20;100.00;99269.34;5039082;28;20041;-77
2023/10/30 03:21:52;;;;;;;8.13;1.20;;;11.60;99.90;;;11.15;100.00;99267.34;5023767;28;20034;-77
2023/10/30 03:24:18;;;;;;;3.95;1.20;;;11.60;99.90;;;11.19;100.00;99268.50;5019780;28;20025;-79
2023/10/30 03:26:43;;;;;;;10.10;1.00;;;11.60;99.90;;;11.15;100.00;99259.16;5024081;28;20042;-77
2023/10/30 03:29:09;;;;;;;5.57;1.10;;;11.60;99.90;;;11.15;100.00;99264.63;5019570;28;20041;-77
2023/10/30 03:31:35;;;;;;;8.80;1.10;;;11.60;99.90;;;11.13;100.00;99274.13;5024316;28;20405;-77
2023/10/30 03:34:01;;;;;;;3.33;1.33;;;11.60;99.90;;;11.14;100.00;99270.31;5011936;28;20045;-78
2023/10/30 03:36:29;;;;;;;8.45;1.15;;;11.60;99.90;;;11.18;100.00;99266.03;5027083;28;20029;-78
2023/10/30 03:38:54;;;;;;;3.63;0.98;;;11.60;99.90;;;11.19;100.00;99268.50;5030563;28;20100;-77
2023/10/30 03:41:20;;;;;;;5.95;1.05;;;11.60;99.90;;;11.19;100.00;99270.41;5029649;28;20037;-77
2023/10/30 03:43:46;;;;;;;4.35;1.00;;;11.60;99.90;;;11.22;100.00;99278.91;5014894;28;20049;-78
2023/10/30 03:46:12;;;;;;;7.65;1.30;;;11.60;99.90;;;11.20;100.00;99269.34;5024273;28;20044;-78
2023/10/30 03:48:40;;;;;;;7.30;1.10;;;11.60;99.90;;;11.17;100.00;99281.56;5013622;28;20030;-78
2023/10/30 03:51:06;;;;;;;6.70;1.25;;;11.60;99.90;;;11.28;100.00;99292.63;5021407;28;20524;-78
2023/10/30 03:53:32;;;;;;;7.78;1.63;;;11.70;99.90;;;11.26;100.00;99287.41;5018825;28;20049;-77
2023/10/30 03:55:58;;;;;;;7.95;1.23;;;11.60;99.90;;;11.20;100.00;99291.97;5022724;28;20049;-78
2023/10/30 03:58:25;;;;;;;4.43;0.95;;;11.60;99.90;;;11.16;100.00;99292.75;5016102;28;20034;-78
2023/10/30 04:00:51;;;;;;;4.57;1.17;;;11.60;99.90;;;11.20;100.00;99296.63;5018467;28;20121;-78
2023/10/30 04:03:18;;;;;;;7.53;1.20;;;11.60;99.90;;;11.16;100.00;99292.75;5028065;28;20060;-78
2023/10/30 04:05:43;;;;;;;6.70;1.20;;;11.60;99.90;;;11.19;100.00;99290.31;5029697;28;20138;-78
2023/10/30 04:08:09;;;;;;;6.53;1.38;;;11.60;99.90;;;11.12;100.00;99297.06;5026604;28;20500;-77
2023/10/30 04:10:35;;;;;;;5.35;0.88;;;11.50;99.90;;;11.08;100.00;99294.03;5017457;28;20034;-78
2023/10/30 04:13:01;;;;;;;7.75;1.38;;;11.50;99.90;;;11.06;100.00;99291.53;5028013;28;20046;-78
2023/10/30 04:15:26;;;;;;;5.57;0.85;;;11.40;99.90;;;11.02;100.00;99284.13;5023165;28;20366;-78
2023/10/30 04:17:54;;;;;;;7.22;1.30;;;11.40;99.90;;;11.11;100.00;99290.78;5029500;28;20041;-79
2023/10/30 04:20:20;;;;;;;6.28;1.20;;;11.50;99.90;;;11.09;100.00;99284.75;5012572;28;20038;-77
2023/10/30 04:22:49;;;;;;;5.40;1.10;;;11.50;99.90;;;11.20;100.00;99278.31;5025827;28;20093;-77
2023/10/30 04:25:16;;;;;;;10.77;1.30;;;11.60;99.90;;;11.21;100.00;99301.00;5014402;28;20033;-77
2023/10/30 04:27:41;;;;;;;7.68;1.05;;;11.60;99.90;;;11.25;100.00;99279.47;5029392;28;20140;-77
2023/10/30 04:30:08;;;;;;;6.40;1.20;;;11.70;99.90;;;11.22;100.00;99280.81;5029570;28;20036;-77
2023/10/30 04:32:34;;;;;;;5.53;1.00;;;11.70;99.90;;;11.30;100.00;99282.28;5014560;28;20116;-77
2023/10/30 04:35:00;;;;;;;8.45;1.17;;;11.70;99.90;;;11.28;100.00;99293.44;5034641;28;20598;-77
2023/10/30 04:37:25;;;;;;;5.68;0.95;;;11.70;99.90;;;11.32;100.00;99294.56;5029289;28;20029;-77
2023/10/30 04:39:51;;;;;;;11.18;1.00;;;11.70;99.90;;;11.27;100.00;99296.41;5014019;28;20421;-77
2023/10/30 04:42:17;;;;;;;4.97;1.23;;;11.70;99.90;;;11.29;100.00;99294.28;5022379;28;20170;-79
2023/10/30 04:44:43;;;;;;;10.85;2.63;;;11.70;99.90;;;11.25;100.00;99283.03;5027271;28;20143;-77
2023/10/30 04:47:08;;;;;;;5.20;0.85;;;11.70;99.90;;;11.30;100.00;99287.75;5031953;28;20449;-78
2023/10/30 04:49:35;;;;;;;9.68;1.40;;;11.70;99.90;;;11.29;100.00;99284.16;5029593;28;20041;-79
2023/10/30 04:52:02;;;;;;;8.55;1.25;;;11.70;99.90;;;11.34;100.00;99281.50;5026026;28;20485;-79
2023/10/30 04:54:28;;;;;;;4.38;0.93;;;11.80;99.90;;;11.29;100.00;99275.97;5030779;28;20422;-78
2023/10/30 04:56:54;;;;;;;5.90;1.00;;;11.70;99.90;;;11.21;100.00;99281.91;5030613;28;20037;-78
2023/10/30 04:59:20;;;;;;;7.10;1.20;;;11.70;99.90;;;11.19;100.00;99278.59;5029180;28;20122;-78
2023/10/30 05:01:45;;;;;;;8.50;1.23;;;11.70;99.90;;;11.19;100.00;99284.88;5027630;28;20111;-79
2023/10/30 05:04:11;;;;;;;7.30;1.20;;;11.70;99.90;;;11.22;100.00;99289.81;5026847;28;20048;-78
2023/10/30 05:06:37;;;;;;;5.82;1.10;;;11.60;99.90;;;11.22;100.00;99299.94;5028749;28;20036;-78
2023/10/30 05:09:03;;;;;;;6.35;1.38;;;11.70;99.90;;;11.28;100.00;99282.53;5026966;28;20497;-79
2023/10/30 05:11:29;;;;;;;4.72;1.30;;;11.80;99.90;;;11.30;100.00;99285.81;5021263;28;20425;-78
2023/10/30 05:13:55;;;;;;;5.47;1.17;;;11.80;99.90;;;11.36;100.00;99286.72;5023315;28;20048;-77
2023/10/30 05:16:21;;;;;;;7.55;1.20;;;11.80;99.90;;;11.35;100.00;99285.06;5035113;28;20124;-78
2023/10/30 05:18:47;;;;;;;7.13;1.50;;;11.80;99.90;;;11.39;100.00;99285.34;5020066;28;20104;-78
2023/10/30 05:21:12;;;;;;;6.90;2.58;;;11.90;99.90;;;11.42;100.00;99287.59;5034085;28;20396;-79
2023/10/30 05:23:38;;;;;;;6.93;1.23;;;11.90;99.90;;;11.41;100.00;99285.97;5029576;28;20095;-77
2023/10/30 05:26:04;;;;;;;6.60;1.20;;;11.90;99.90;;;11.35;100.00;99280.41;5038930;28;20034;-78
2023/10/30 05:28:30;;;;;;;9.77;1.58;;;11.80;99.90;;;11.35;100.00;99280.41;5025972;28;20056;-77
2023/10/30 05:30:56;;;;;;;5.78;1.00;;;11.80;99.90;;;11.39;100.00;99280.75;5027888;28;20065;-78
2023/10/30 05:33:22;;;;;;;6.97;1.20;;;11.80;99.90;;;11.37;100.00;99280.97;5027178;28;20037;-78
2023/10/30 05:35:52;;;;;;;10.02;1.60;;;11.80;99.90;;;11.45;100.00;99273.44;5030074;28;20045;-78
2023/10/30 05:38:17;;;;;;;5.88;1.20;;;11.80;99.90;;;11.37;100.00;99277.44;5025754;28;20038;-78
2023/10/30 05:40:45;;;;;;;6.43;1.27;;;11.80;99.90;;;11.32;100.00;99272.75;5022568;28;20080;-78
2023/10/30 05:43:11;;;;;;;6.47;1.10;;;11.70;99.90;;;11.33;100.00;99268.13;5026391;28;20072;-77
2023/10/30 05:45:37;;;;;;;7.75;1.30;;;11.80;99.90;;;11.40;100.00;99279.66;5034413;28;20077;-78
2023/10/30 05:48:03;;;;;;;5.95;1.30;;;11.80;99.90;;;11.41;100.00;99280.50;5034825;28;20049;-78
2023/10/30 05:50:29;;;;;;;5.85;1.10;;;11.80;99.90;;;11.38;100.00;99287.28;5025718;28;20153;-78
2023/10/30 05:52:55;;;;;;;7.80;1.30;;;11.80;99.90;;;11.38;100.00;99281.81;5020854;28;20112;-77
2023/10/30 05:55:20;;;;;;;9.98;1.55;;;11.70;99.90;;;11.33;100.00;99266.19;5029464;28;20098;-77
2023/10/30 05:57:46;;;;;;;4.50;1.00;;;11.70;99.90;;;11.36;100.00;99276.59;5029281;28;20049;-78
2023/10/30 06:00:14;;;;;;;9.57;1.10;;;11.70;99.90;;;11.34;100.00;99278.75;5020648;28;20049;-78
2023/10/30 06:02:40;;;;;;;9.40;1.38;;;11.60;99.90;;;11.35;100.00;99285.88;4997375;28;20483;-78
2023/10/30 06:05:08;;;;;;;6.35;1.20;;;11.70;99.90;;;11.33;100.00;99284.50;5024119;28;20087;-78
2023/10/30 06:07:34;;;;;;;6.25;1.30;;;11.70;99.90;;;11.24;100.00;99286.84;5031348;28;20083;-78
2023/10/30 06:10:01;;;;;;;5.90;1.30;;;11.60;99.90;;;11.19;100.00;99289.53;5012147;28;20045;-78
2023/10/30 06:12:27;;;;;;;8.00;1.17;;;11.50;99.90;;;11.19;100.00;99294.97;5036267;28;20041;-76
2023/10/30 06:14:53;;;;;;;6.75;1.30;;;11.50;99.90;;;11.17;100.00;99297.13;5024683;28;20041;-78
2023/10/30 06:17:19;;;;;;;6.88;1.30;;;11.50;99.90;;;11.15;100.00;99310.22;5026965;28;20068;-79
2023/10/30 06:19:44;;;;;;;10.00;1.40;;;11.50;99.90;;;11.18;100.00;99313.25;5037400;28;20043;-78
2023/10/30 06:22:10;;;;;;;8.57;1.30;;;11.60;99.90;;;11.15;100.00;99302.03;5019811;28;20503;-81
2023/10/30 06:24:36;;;;;;;8.70;1.50;;;11.60;99.90;;;11.14;100.00;99311.25;5013137;28;20049;-77
2023/10/30 06:27:02;;;;;;;9.50;2.00;;;11.50;99.90;;;11.12;100.00;99307.97;5021607;28;20045;-79
2023/10/30 06:29:28;;;;;;;5.97;1.45;;;11.60;99.90;;;11.15;100.00;99327.41;5021626;28;20131;-82
2023/10/30 06:31:54;;;;;;;7.60;1.45;;;11.50;99.90;;;11.17;100.00;99329.91;5025709;28;20038;-78
2023/10/30 06:34:20;;;;;;;8.32;1.35;;;11.50;99.90;;;11.17;100.00;99329.91;5025368;28;20095;-78
2023/10/30 06:36:47;;;;;;;8.98;1.48;;;11.50;99.90;;;11.14;100.00;99338.56;5024309;28;20104;-79
2023/10/30 06:39:17;;;;;;;8.38;1.23;;;11.50;99.90;;;11.07;100.00;99339.56;5024307;28;20025;-78
2023/10/30 06:41:43;;;;;;;11.23;1.55;;;11.40;99.90;;;11.17;100.00;99349.00;5022407;28;20053;-78
2023/10/30 06:44:09;;;;;;;7.80;1.65;;;11.50;99.90;;;11.25;100.00;99356.75;5022176;28;20037;-78
2023/10/30 06:46:34;;;;;;;12.02;1.90;;;11.60;99.90;;;11.24;100.00;99363.28;5030634;28;20025;-78
2023/10/30 06:49:00;;;;;;;6.70;1.23;;;11.60;99.90;;;11.30;100.00;99361.47;5025345;28;20378;-78
2023/10/30 06:51:26;;;;;;;6.15;1.60;;;11.60;99.90;;;11.34;100.00;99366.13;5024435;28;20044;-78
2023/10/30 06:53:52;;;;;;;7.03;1.50;;;11.70;99.90;;;11.40;100.00;99363.47;5029540;28;20044;-78
2023/10/30 06:56:18;;;;;;;9.07;1.70;;;11.70;99.90;;;11.44;100.00;99367.38;5030422;28;20401;-78
2023/10/30 06:58:44;;;;;;;9.93;1.90;;;11.70;99.90;;;11.43;100.00;99376.63;5030613;28;20168;-78
2023/10/30 07:01:09;;;;;;;11.32;1.38;;;11.70;99.90;;;11.37;100.00;99365.63;5030748;28;20584;-79
2023/10/30 07:03:36;;;;;;;8.18;1.30;;;11.80;99.90;;;11.44;100.00;99368.19;5030623;28;20045;-78
2023/10/30 07:06:02;;;;;;;8.90;1.30;;;11.70;99.90;;;11.29;100.00;99366.06;5022418;28;20037;-80
2023/10/30 07:08:28;;;;;;;9.13;1.20;;;11.60;99.90;;;11.12;100.00;99368.00;5026231;28;20034;-80
2023/10/30 07:10:55;;;;;;;9.88;1.52;;;11.40;99.90;;;10.92;100.00;99372.13;5020100;28;20103;-78
2023/10/30 07:13:22;;;;;;;4.93;1.43;;;11.30;99.90;;;10.75;100.00;99362.06;5030018;28;20464;-80
2023/10/30 07:15:48;;;;;;;8.23;1.50;;;11.20;99.90;;;10.73;100.00;99369.66;5022553;28;20046;-78
2023/10/30 07:18:14;;;;;;;8.82;1.27;;;11.10;99.90;;;10.79;100.00;99378.75;5030604;28;20045;-81
2023/10/30 07:20:39;;;;;;;9.35;1.60;;;11.10;99.90;;;10.95;100.00;99377.06;5018315;28;20029;-80
2023/10/30 07:23:05;;;;;;;7.32;1.42;;;11.30;99.90;;;11.10;100.00;99381.09;5025079;28;20041;-80
2023/10/30 07:25:31;;;;;;;11.18;1.92;;;11.40;99.90;;;11.17;100.00;99373.56;5028770;28;20048;-80
2023/10/30 07:27:57;;;;;;;6.88;1.92;;;11.60;99.90;;;11.26;100.00;99376.66;5019586;28;20060;-80
2023/10/30 07:30:24;;;;;;;7.20;1.60;;;11.70;99.90;;;11.40;100.00;99382.59;5017227;28;20615;-80
2023/10/30 07:32:50;;;;;;;5.70;1.70;;;11.70;99.90;;;11.33;100.00;99378.13;5016787;28;20038;-80
2023/10/30 07:35:15;;;;;;;8.60;1.45;;;11.70;99.90;;;11.33;100.00;99380.88;5024338;28;20040;-80
2023/10/30 07:37:41;;;;;;;14.85;2.60;;;11.70;99.90;;;11.26;100.00;99380.22;5022051;28;20413;-79
2023/10/30 07:40:07;;;;;;;10.25;2.65;;;11.70;99.90;;;11.21;100.00;99355.59;5020663;28;20099;-79
2023/10/30 07:42:33;;;;;;;9.88;2.00;;;11.60;99.90;;;11.26;100.00;99377.50;5030373;28;20477;-80
2023/10/30 07:44:59;;;;;;;7.60;1.60;;;11.70;99.90;;;11.35;100.00;99361.50;5026498;28;20042;-80
2023/10/30 07:47:25;;;;;;;6.57;1.45;;;11.70;99.90;;;11.40;100.00;99358.00;5027963;28;20064;-82
2023/10/30 07:49:50;;;;;;;8.43;1.60;;;11.80;99.90;;;11.55;100.00;99360.94;5028257;28;20037;-79
2023/10/30 07:52:16;;;;;;;4.63;1.33;;;12.00;99.90;;;11.59;100.00;99358.53;5029473;28;20125;-79
2023/10/30 07:54:42;;;;;;;8.68;1.85;;;12.10;99.90;;;11.73;100.00;99357.03;5018370;28;20061;-80
2023/10/30 07:57:09;;;;;;;7.32;1.60;;;12.10;99.90;;;11.75;100.00;99362.25;5013611;28;20045;-78
2023/10/30 07:59:35;;;;;;;6.25;1.42;;;12.30;99.90;;;11.85;100.00;99362.38;5013690;28;20042;-78
2023/10/30 08:02:03;;;;;;;9.23;1.58;;;12.30;99.90;;;11.89;100.00;99362.69;5020976;28;20045;-78
2023/10/30 08:04:29;;;;;;;6.68;1.30;;;12.30;99.90;;;11.91;100.00;99361.31;5029432;28;20041;-80
2023/10/30 08:06:55;;;;;;;7.95;1.55;;;12.40;99.90;;;11.99;100.00;99367.44;5011046;28;20075;-81
2023/10/30 08:09:20;;;;;;;6.88;1.70;;;12.40;99.90;;;12.03;100.00;99371.34;5026245;28;20040;-80
2023/10/30 08:11:46;;;;;;;9.95;1.70;;;12.50;99.90;;;12.05;100.00;99371.91;5037562;28;20552;-78
2023/10/30 08:14:12;;;;;;;5.72;1.55;;;12.50;99.90;;;12.19;100.00;99378.59;5043976;28;20404;-80
2023/10/30 08:16:38;;;;;;;10.07;1.48;;;12.60;99.90;;;12.14;100.00;99369.53;5043489;28;20044;-80
2023/10/30 08:19:04;;;;;;;7.18;1.80;;;12.60;99.90;;;12.08;100.00;99361.28;5044953;28;20482;-78
2023/10/30 08:21:30;;;;;;;9.57;1.67;;;12.60;99.90;;;12.07;100.00;99356.06;5044689;28;20045;-78
2023/10/30 08:23:55;;;;;;;6.85;1.65;;;12.60;99.90;;;12.14;100.00;99364.88;5032852;28;20041;-77
2023/10/30 08:26:21;;;;;;;8.98;1.70;;;12.50;99.90;;;12.13;100.00;99355.03;5035923;28;20078;-76
2023/10/30 08:28:47;;;;;;;10.23;1.67;;;12.50;99.90;;;12.03;100.00;99354.94;5033514;28;20041;-80
2023/10/30 08:31:15;;;;;;;5.88;1.48;;;12.50;99.90;;;12.06;100.00;99363.41;5030078;28;20034;-78
2023/10/30 08:33:41;;;;;;;6.63;1.33;;;12.50;99.90;;;12.02;100.00;99369.69;5021991;28;20041;-79
2023/10/30 08:36:07;;;;;;;10.13;1.75;;;12.50;99.90;;;12.04;100.00;99387.47;5032553;28;20044;-81
2023/10/30 08:38:33;;;;;;;8.70;1.67;;;12.40;99.90;;;11.96;100.00;99378.88;5033682;28;20044;-79
2023/10/30 08:40:58;;;;;;;6.68;1.20;;;12.40;99.90;;;11.92;100.00;99387.56;5044050;28;20043;-77
2023/10/30 08:43:24;;;;;;;6.55;1.63;;;12.40;99.90;;;11.92;100.00;99384.03;5025833;28;20037;-79
2023/10/30 08:45:50;;;;;;;6.60;1.38;;;12.40;99.90;;;11.99;100.00;99378.38;5016098;28;20026;-79
2023/10/30 08:48:15;;;;;;;5.20;1.05;;;12.40;99.90;;;12.03;100.00;99390.47;5022258;28;20033;-80
2023/10/30 08:50:41;;;;;;;9.95;1.75;;;12.40;99.90;;;12.10;100.00;99393.81;5024109;28;20116;-79
2023/10/30 08:53:07;;;;;;;6.65;1.25;;;12.50;99.90;;;12.21;100.00;99401.06;5021217;28;20092;-79
2023/10/30 08:55:33;;;;;;;10.40;1.90;;;12.50;99.90;;;12.37;100.00;99406.66;5019895;28;20560;-78
2023/10/30 08:57:58;;;;;;;7.28;1.67;;;12.70;99.90;;;12.49;100.00;99410.06;5020248;28;20049;-78
2023/10/30 09:00:24;;;;;;;6.07;1.60;;;12.80;99.90;;;12.73;100.00;99409.72;5022561;28;20037;-79
2023/10/30 09:02:50;;;;;;;5.70;1.52;;;13.10;99.90;;;12.83;100.00;99410.88;5023230;28;20069;-78
2023/10/30 09:05:16;;;;;;;8.00;1.60;;;13.20;99.90;;;13.12;100.00;99414.06;5022897;28;20088;-77
2023/10/30 09:07:43;;;;;;;7.93;1.27;;;13.40;99.90;;;13.37;100.00;99429.84;5015678;28;20432;-79
2023/10/30 09:10:09;;;;;;;5.78;1.08;;;13.70;99.90;;;13.62;100.00;99427.53;5015375;28;20950;-78
2023/10/30 09:12:34;;;;;;;6.15;1.48;;;13.90;99.90;;;13.81;100.00;99427.91;5044145;28;20034;-80
2023/10/30 09:15:00;;;;;;;7.25;1.40;;;14.10;99.90;;;13.94;100.00;99430.13;5042854;28;20049;-77
2023/10/30 09:17:26;;;;;;;5.63;1.40;;;14.30;99.90;;;14.02;100.00;99426.03;5040397;28;20033;-77
2023/10/30 09:19:52;;;;;;;8.38;2.17;;;14.50;99.90;;;14.35;100.00;99420.38;5025765;28;20147;-76
2023/10/30 09:22:18;;;;;;;8.82;1.60;;;14.70;99.90;;;14.64;100.00;99422.59;5024765;28;20041;-79
2023/10/30 09:24:44;;;;;;;4.28;1.27;;;;;;;14.86;100.00;99422.34;5010855;28;20049;-79
2023/10/30 09:27:10;;;;;;;4.65;1.40;;;;;;;14.92;100.00;99423.97;5029458;28;20048;-79
2023/10/30 09:29:36;;;;;;;6.53;1.33;;;;;;;15.22;100.00;99421.47;5024620;28;20116;-80
2023/10/30 09:32:03;;;;;;;5.35;1.13;;;;;;;15.20;100.00;99421.72;5026397;28;20481;-81
2023/10/30 09:34:30;;;;;;;6.88;1.58;;;;;;;15.55;100.00;99435.66;5018305;28;20040;-79
2023/10/30 09:36:58;;;;;;;4.73;1.27;;;;;;;15.84;100.00;99434.19;5030584;28;20079;-80
2023/10/30 09:39:24;;;;;;;;;;;;;;;16.77;100.00;99442.75;5029358;28;20113;-80
2023/10/30 09:41:52;;;;;;;4.63;1.30;;;;;;;17.29;100.00;99435.97;5024077;28;20659;-81
2023/10/30 09:44:18;;;;;;;3.50;1.08;;;;;;;18.19;100.00;99433.53;5023952;28;20033;-80
2023/10/30 09:46:46;;;;;;;4.20;1.20;;;;;;;18.64;100.00;99452.47;5024616;28;20073;-80
2023/10/30 09:49:13;;;;;;;6.40;1.45;;;;;;;19.98;98.79;99443.72;5026728;28;20042;-80
2023/10/30 09:51:42;;;;;;;5.57;1.30;;;;;;;20.67;85.12;99441.91;5021103;28;20120;-80
2023/10/30 09:54:09;;;;;;;5.60;1.20;;;;;;;21.76;79.01;99435.53;5026107;28;20046;-80
2023/10/30 09:56:37;;;;;;;4.28;1.30;;;;;;;22.65;71.32;99443.66;5019993;28;20112;-79
2023/10/30 09:59:04;;;;;;;5.20;1.20;;;;;;;22.87;65.96;99435.50;5024915;28;20029;-80
2023/10/30 10:01:30;;;;;;;6.28;1.30;;;;;;;23.38;64.61;99442.09;5022777;28;20033;-78
2023/10/30 10:03:57;;;;;;;5.57;1.55;;;;;;;23.48;61.51;99434.53;5027061;28;20489;-78
2023/10/30 10:06:23;;;;;;;4.45;1.40;;;;;;;24.50;59.33;99440.16;5021407;28;20046;-78
2023/10/30 10:08:50;;;;;;;6.05;1.52;;;;;;;23.70;61.13;99447.34;5031816;28;20108;-78
2023/10/30 10:11:19;;;;;;;5.07;1.40;;;;;;;23.66;59.45;99435.25;5025958;28;20057;-79
2023/10/30 10:13:48;;;;;;;5.50;1.25;;;;;;;23.44;60.24;99444.69;5026754;28;20061;-79